sensor_id;sensor_type;location;lat;lon;timestamp;temperature;humidity
4637;DHT22;2331;48.806;9.140;2023-07-13T00:01:48;24.00;1.00
4637;DHT22;2331;48.806;9.140;2023-07-13T00:04:16;24.00;1.00
4637;DHT22;2331;48.806;9.140;2023-07-13T00:06:46;23.90;1.00
4637;DHT22;2331;48.806;9.140;2023-07-13T00:09:14;23.90;1.00
4637;DHT22;2331;48.806;9.140;2023-07-13T00:11:42;23.70;1.00
4637;DHT22;2331;48.806;9.140;2023-07-13T00:14:10;23.70;1.00
4637;DHT22;2331;48.806;9.140;2023-07-13T00:16:39;23.80;1.00
4637;DHT22;2331;48.806;9.140;2023-07-13T00:19:10;23.70;1.00
4637;DHT22;2331;48.806;9.140;2023-07-13T00:21:37;23.60;1.00
4637;DHT22;2331;48.806;9.140;2023-07-13T00:24:06;23.60;1.00
4637;DHT22;2331;48.806;9.140;2023-07-13T00:26:34;23.60;1.00
4637;DHT22;2331;48.806;9.140;2023-07-13T00:29:01;23.60;1.00
4637;DHT22;2331;48.806;9.140;2023-07-13T00:31:28;23.60;1.00
4637;DHT22;2331;48.806;9.140;2023-07-13T00:33:55;23.50;1.00
4637;DHT22;2331;48.806;9.140;2023-07-13T00:36:22;23.50;1.00
4637;DHT22;2331;48.806;9.140;2023-07-13T00:38:49;23.30;1.00
4637;DHT22;2331;48.806;9.140;2023-07-13T00:41:17;23.20;1.00
4637;DHT22;2331;48.806;9.140;2023-07-13T00:43:44;23.20;1.00
4637;DHT22;2331;48.806;9.140;2023-07-13T00:46:19;23.00;1.00
4637;DHT22;2331;48.806;9.140;2023-07-13T00:48:48;23.00;1.00
4637;DHT22;2331;48.806;9.140;2023-07-13T00:51:17;23.00;1.00
4637;DHT22;2331;48.806;9.140;2023-07-13T00:53:45;23.00;1.00
4637;DHT22;2331;48.806;9.140;2023-07-13T00:56:12;23.00;1.00
4637;DHT22;2331;48.806;9.140;2023-07-13T00:58:40;23.10;1.00
4637;DHT22;2331;48.806;9.140;2023-07-13T01:01:07;23.10;1.00
4637;DHT22;2331;48.806;9.140;2023-07-13T01:03:35;23.00;1.00
4637;DHT22;2331;48.806;9.140;2023-07-13T01:06:03;23.00;1.00
4637;DHT22;2331;48.806;9.140;2023-07-13T01:08:30;23.00;1.00
4637;DHT22;2331;48.806;9.140;2023-07-13T01:10:57;22.90;1.00
4637;DHT22;2331;48.806;9.140;2023-07-13T01:13:25;22.90;1.00
4637;DHT22;2331;48.806;9.140;2023-07-13T01:15:55;23.00;1.00
4637;DHT22;2331;48.806;9.140;2023-07-13T01:18:24;23.00;1.00
4637;DHT22;2331;48.806;9.140;2023-07-13T01:20:54;22.90;1.00
4637;DHT22;2331;48.806;9.140;2023-07-13T01:23:21;22.90;1.00
4637;DHT22;2331;48.806;9.140;2023-07-13T01:25:48;22.90;1.00
4637;DHT22;2331;48.806;9.140;2023-07-13T01:28:15;22.90;1.00
4637;DHT22;2331;48.806;9.140;2023-07-13T01:30:43;22.90;1.00
4637;DHT22;2331;48.806;9.140;2023-07-13T01:33:11;22.80;1.00
4637;DHT22;2331;48.806;9.140;2023-07-13T01:35:39;22.80;1.00
4637;DHT22;2331;48.806;9.140;2023-07-13T01:38:07;22.80;1.00
4637;DHT22;2331;48.806;9.140;2023-07-13T01:40:36;22.60;1.00
4637;DHT22;2331;48.806;9.140;2023-07-13T01:43:03;22.60;1.00
4637;DHT22;2331;48.806;9.140;2023-07-13T01:45:29;22.50;1.00
4637;DHT22;2331;48.806;9.140;2023-07-13T01:47:56;22.50;1.00
4637;DHT22;2331;48.806;9.140;2023-07-13T01:50:24;22.40;1.00
4637;DHT22;2331;48.806;9.140;2023-07-13T01:52:51;22.40;1.00
4637;DHT22;2331;48.806;9.140;2023-07-13T01:55:20;22.50;1.00
4637;DHT22;2331;48.806;9.140;2023-07-13T01:57:47;22.50;1.00
4637;DHT22;2331;48.806;9.140;2023-07-13T02:00:15;22.50;1.00
4637;DHT22;2331;48.806;9.140;2023-07-13T02:02:42;22.40;1.00
4637;DHT22;2331;48.806;9.140;2023-07-13T02:05:09;22.50;1.00
4637;DHT22;2331;48.806;9.140;2023-07-13T02:07:36;22.50;1.00
4637;DHT22;2331;48.806;9.140;2023-07-13T02:10:03;22.40;1.00
4637;DHT22;2331;48.806;9.140;2023-07-13T02:12:32;22.40;1.00
4637;DHT22;2331;48.806;9.140;2023-07-13T02:14:59;22.40;1.00
4637;DHT22;2331;48.806;9.140;2023-07-13T02:17:26;22.40;1.00
4637;DHT22;2331;48.806;9.140;2023-07-13T02:19:53;22.40;1.00
4637;DHT22;2331;48.806;9.140;2023-07-13T02:22:21;22.40;1.00
4637;DHT22;2331;48.806;9.140;2023-07-13T02:24:48;22.30;1.00
4637;DHT22;2331;48.806;9.140;2023-07-13T02:27:15;22.30;1.00
4637;DHT22;2331;48.806;9.140;2023-07-13T02:29:43;22.30;1.00
4637;DHT22;2331;48.806;9.140;2023-07-13T02:32:10;22.30;1.00
4637;DHT22;2331;48.806;9.140;2023-07-13T02:34:36;22.40;1.00
4637;DHT22;2331;48.806;9.140;2023-07-13T02:37:04;22.30;1.00
4637;DHT22;2331;48.806;9.140;2023-07-13T02:39:30;22.30;1.00
4637;DHT22;2331;48.806;9.140;2023-07-13T02:41:58;22.30;1.00
4637;DHT22;2331;48.806;9.140;2023-07-13T02:44:25;22.30;1.00
4637;DHT22;2331;48.806;9.140;2023-07-13T02:46:54;22.30;1.00
4637;DHT22;2331;48.806;9.140;2023-07-13T02:49:20;22.30;1.00
4637;DHT22;2331;48.806;9.140;2023-07-13T02:51:47;22.30;1.00
4637;DHT22;2331;48.806;9.140;2023-07-13T02:54:14;22.40;1.00
4637;DHT22;2331;48.806;9.140;2023-07-13T02:56:41;22.30;1.00
4637;DHT22;2331;48.806;9.140;2023-07-13T02:59:09;22.30;1.00
4637;DHT22;2331;48.806;9.140;2023-07-13T03:01:35;22.20;1.00
4637;DHT22;2331;48.806;9.140;2023-07-13T03:04:04;22.20;1.00
4637;DHT22;2331;48.806;9.140;2023-07-13T03:06:31;22.10;1.00
4637;DHT22;2331;48.806;9.140;2023-07-13T03:08:57;22.10;1.00
4637;DHT22;2331;48.806;9.140;2023-07-13T03:11:25;22.00;1.00
4637;DHT22;2331;48.806;9.140;2023-07-13T03:13:52;22.00;1.00
4637;DHT22;2331;48.806;9.140;2023-07-13T03:16:19;22.00;1.00
4637;DHT22;2331;48.806;9.140;2023-07-13T03:18:47;22.00;1.00
4637;DHT22;2331;48.806;9.140;2023-07-13T03:21:16;21.90;1.00
4637;DHT22;2331;48.806;9.140;2023-07-13T03:23:43;21.90;1.00
4637;DHT22;2331;48.806;9.140;2023-07-13T03:26:12;21.90;1.00
4637;DHT22;2331;48.806;9.140;2023-07-13T03:28:39;21.90;1.00
4637;DHT22;2331;48.806;9.140;2023-07-13T03:31:08;21.90;1.00
4637;DHT22;2331;48.806;9.140;2023-07-13T03:33:35;21.90;1.00
4637;DHT22;2331;48.806;9.140;2023-07-13T03:36:03;21.90;1.00
4637;DHT22;2331;48.806;9.140;2023-07-13T03:38:31;21.80;1.00
4637;DHT22;2331;48.806;9.140;2023-07-13T03:40:58;21.80;1.00
4637;DHT22;2331;48.806;9.140;2023-07-13T03:43:24;21.80;1.00
4637;DHT22;2331;48.806;9.140;2023-07-13T03:45:51;21.70;1.00
4637;DHT22;2331;48.806;9.140;2023-07-13T03:48:18;21.70;1.00
4637;DHT22;2331;48.806;9.140;2023-07-13T03:50:46;21.70;1.00
4637;DHT22;2331;48.806;9.140;2023-07-13T03:53:13;21.70;1.00
4637;DHT22;2331;48.806;9.140;2023-07-13T03:55:41;21.70;1.00
4637;DHT22;2331;48.806;9.140;2023-07-13T03:58:28;21.70;1.00
4637;DHT22;2331;48.806;9.140;2023-07-13T04:00:55;21.70;1.00
4637;DHT22;2331;48.806;9.140;2023-07-13T04:03:23;21.70;1.00
4637;DHT22;2331;48.806;9.140;2023-07-13T04:05:50;21.60;1.00
4637;DHT22;2331;48.806;9.140;2023-07-13T04:08:17;21.70;1.00
4637;DHT22;2331;48.806;9.140;2023-07-13T04:10:45;21.70;1.00
4637;DHT22;2331;48.806;9.140;2023-07-13T04:13:11;21.70;1.00
4637;DHT22;2331;48.806;9.140;2023-07-13T04:15:39;21.70;1.00
4637;DHT22;2331;48.806;9.140;2023-07-13T04:18:06;21.70;1.00
4637;DHT22;2331;48.806;9.140;2023-07-13T04:20:33;21.70;1.00
4637;DHT22;2331;48.806;9.140;2023-07-13T04:22:59;21.60;1.00
4637;DHT22;2331;48.806;9.140;2023-07-13T04:25:26;21.70;1.00
4637;DHT22;2331;48.806;9.140;2023-07-13T04:27:55;21.70;1.00
4637;DHT22;2331;48.806;9.140;2023-07-13T04:30:22;21.70;1.00
4637;DHT22;2331;48.806;9.140;2023-07-13T04:32:50;21.70;1.00
4637;DHT22;2331;48.806;9.140;2023-07-13T04:35:18;21.70;1.00
4637;DHT22;2331;48.806;9.140;2023-07-13T04:37:46;21.70;1.00
4637;DHT22;2331;48.806;9.140;2023-07-13T04:40:14;21.70;1.00
4637;DHT22;2331;48.806;9.140;2023-07-13T04:42:40;21.70;1.00
4637;DHT22;2331;48.806;9.140;2023-07-13T04:45:10;21.70;1.00
4637;DHT22;2331;48.806;9.140;2023-07-13T04:47:37;21.70;1.00
4637;DHT22;2331;48.806;9.140;2023-07-13T04:50:04;21.70;1.00
4637;DHT22;2331;48.806;9.140;2023-07-13T04:52:31;21.60;1.00
4637;DHT22;2331;48.806;9.140;2023-07-13T04:54:59;21.70;1.00
4637;DHT22;2331;48.806;9.140;2023-07-13T04:57:26;21.70;1.00
4637;DHT22;2331;48.806;9.140;2023-07-13T04:59:52;21.70;1.00
4637;DHT22;2331;48.806;9.140;2023-07-13T05:02:21;21.60;1.00
4637;DHT22;2331;48.806;9.140;2023-07-13T05:04:49;21.60;1.00
4637;DHT22;2331;48.806;9.140;2023-07-13T05:07:15;21.60;1.00
4637;DHT22;2331;48.806;9.140;2023-07-13T05:09:42;21.60;1.00
4637;DHT22;2331;48.806;9.140;2023-07-13T05:12:09;21.60;1.00
4637;DHT22;2331;48.806;9.140;2023-07-13T05:14:36;21.60;1.00
4637;DHT22;2331;48.806;9.140;2023-07-13T05:17:03;21.60;1.00
4637;DHT22;2331;48.806;9.140;2023-07-13T05:19:32;21.60;1.00
4637;DHT22;2331;48.806;9.140;2023-07-13T05:21:59;21.60;1.00
4637;DHT22;2331;48.806;9.140;2023-07-13T05:24:25;21.60;1.00
4637;DHT22;2331;48.806;9.140;2023-07-13T05:26:52;21.60;1.00
4637;DHT22;2331;48.806;9.140;2023-07-13T05:29:19;21.60;1.00
4637;DHT22;2331;48.806;9.140;2023-07-13T05:31:46;21.60;1.00
4637;DHT22;2331;48.806;9.140;2023-07-13T05:34:13;21.70;1.00
4637;DHT22;2331;48.806;9.140;2023-07-13T05:36:41;21.60;1.00
4637;DHT22;2331;48.806;9.140;2023-07-13T05:39:08;21.70;1.00
4637;DHT22;2331;48.806;9.140;2023-07-13T05:41:35;21.70;1.00
4637;DHT22;2331;48.806;9.140;2023-07-13T05:44:02;21.70;1.00
4637;DHT22;2331;48.806;9.140;2023-07-13T05:46:28;21.70;1.00
4637;DHT22;2331;48.806;9.140;2023-07-13T05:48:56;21.70;1.00
4637;DHT22;2331;48.806;9.140;2023-07-13T05:51:23;21.80;1.00
4637;DHT22;2331;48.806;9.140;2023-07-13T05:53:51;21.70;1.00
4637;DHT22;2331;48.806;9.140;2023-07-13T05:56:18;21.80;1.00
4637;DHT22;2331;48.806;9.140;2023-07-13T05:58:45;21.70;1.00
4637;DHT22;2331;48.806;9.140;2023-07-13T06:01:14;21.80;1.00
4637;DHT22;2331;48.806;9.140;2023-07-13T06:03:41;21.70;1.00
4637;DHT22;2331;48.806;9.140;2023-07-13T06:06:09;21.80;1.00
4637;DHT22;2331;48.806;9.140;2023-07-13T06:08:36;21.80;1.00
4637;DHT22;2331;48.806;9.140;2023-07-13T06:11:07;21.90;1.00
4637;DHT22;2331;48.806;9.140;2023-07-13T06:13:34;21.90;1.00
4637;DHT22;2331;48.806;9.140;2023-07-13T06:16:01;22.00;1.00
4637;DHT22;2331;48.806;9.140;2023-07-13T06:18:29;21.90;1.00
4637;DHT22;2331;48.806;9.140;2023-07-13T06:20:56;22.00;1.00
4637;DHT22;2331;48.806;9.140;2023-07-13T06:23:23;22.00;1.00
4637;DHT22;2331;48.806;9.140;2023-07-13T06:25:50;22.00;1.00
4637;DHT22;2331;48.806;9.140;2023-07-13T06:28:18;22.10;1.00
4637;DHT22;2331;48.806;9.140;2023-07-13T06:30:45;22.10;1.00
4637;DHT22;2331;48.806;9.140;2023-07-13T06:33:12;22.00;1.00
4637;DHT22;2331;48.806;9.140;2023-07-13T06:35:38;22.10;1.00
4637;DHT22;2331;48.806;9.140;2023-07-13T06:38:05;22.10;1.00
4637;DHT22;2331;48.806;9.140;2023-07-13T06:40:32;22.20;1.00
4637;DHT22;2331;48.806;9.140;2023-07-13T06:43:00;22.20;1.00
4637;DHT22;2331;48.806;9.140;2023-07-13T06:45:28;22.30;1.00
4637;DHT22;2331;48.806;9.140;2023-07-13T06:47:55;22.30;1.00
4637;DHT22;2331;48.806;9.140;2023-07-13T06:50:22;22.30;1.00
4637;DHT22;2331;48.806;9.140;2023-07-13T06:52:48;22.40;1.00
4637;DHT22;2331;48.806;9.140;2023-07-13T06:55:15;22.40;1.00
4637;DHT22;2331;48.806;9.140;2023-07-13T06:57:42;22.50;1.00
4637;DHT22;2331;48.806;9.140;2023-07-13T07:00:10;22.60;1.00
4637;DHT22;2331;48.806;9.140;2023-07-13T07:02:38;22.60;1.00
4637;DHT22;2331;48.806;9.140;2023-07-13T07:05:05;22.60;1.00
4637;DHT22;2331;48.806;9.140;2023-07-13T07:07:32;22.60;1.00
4637;DHT22;2331;48.806;9.140;2023-07-13T07:09:59;22.60;1.00
4637;DHT22;2331;48.806;9.140;2023-07-13T07:12:25;22.60;1.00
4637;DHT22;2331;48.806;9.140;2023-07-13T07:14:52;22.60;1.00
4637;DHT22;2331;48.806;9.140;2023-07-13T07:17:19;22.70;1.00
4637;DHT22;2331;48.806;9.140;2023-07-13T07:19:47;22.60;1.00
4637;DHT22;2331;48.806;9.140;2023-07-13T07:22:14;22.70;1.00
4637;DHT22;2331;48.806;9.140;2023-07-13T07:24:41;22.80;1.00
4637;DHT22;2331;48.806;9.140;2023-07-13T07:27:07;22.70;1.00
4637;DHT22;2331;48.806;9.140;2023-07-13T07:29:34;22.80;1.00
4637;DHT22;2331;48.806;9.140;2023-07-13T07:32:01;22.90;1.00
4637;DHT22;2331;48.806;9.140;2023-07-13T07:34:27;22.80;1.00
4637;DHT22;2331;48.806;9.140;2023-07-13T07:37:01;22.80;1.00
4637;DHT22;2331;48.806;9.140;2023-07-13T07:39:28;22.80;1.00
4637;DHT22;2331;48.806;9.140;2023-07-13T07:41:55;22.80;1.00
4637;DHT22;2331;48.806;9.140;2023-07-13T07:44:21;22.80;1.00
4637;DHT22;2331;48.806;9.140;2023-07-13T07:46:48;22.90;1.00
4637;DHT22;2331;48.806;9.140;2023-07-13T07:49:15;23.00;1.00
4637;DHT22;2331;48.806;9.140;2023-07-13T07:51:42;23.10;1.00
4637;DHT22;2331;48.806;9.140;2023-07-13T07:54:10;23.10;1.00
4637;DHT22;2331;48.806;9.140;2023-07-13T07:56:36;23.20;1.00
4637;DHT22;2331;48.806;9.140;2023-07-13T07:59:03;23.20;1.00
4637;DHT22;2331;48.806;9.140;2023-07-13T08:01:30;23.20;1.00
4637;DHT22;2331;48.806;9.140;2023-07-13T08:03:57;23.20;1.00
4637;DHT22;2331;48.806;9.140;2023-07-13T08:06:24;23.20;1.00
4637;DHT22;2331;48.806;9.140;2023-07-13T08:08:50;23.20;1.00
4637;DHT22;2331;48.806;9.140;2023-07-13T08:11:20;23.30;1.00
4637;DHT22;2331;48.806;9.140;2023-07-13T08:13:47;23.30;1.00
4637;DHT22;2331;48.806;9.140;2023-07-13T08:16:14;23.40;1.00
4637;DHT22;2331;48.806;9.140;2023-07-13T08:18:40;23.30;1.00
4637;DHT22;2331;48.806;9.140;2023-07-13T08:21:08;23.40;1.00
4637;DHT22;2331;48.806;9.140;2023-07-13T08:23:35;23.40;1.00
4637;DHT22;2331;48.806;9.140;2023-07-13T08:26:02;23.50;1.00
4637;DHT22;2331;48.806;9.140;2023-07-13T08:28:33;23.60;1.00
4637;DHT22;2331;48.806;9.140;2023-07-13T08:31:01;23.60;1.00
4637;DHT22;2331;48.806;9.140;2023-07-13T08:33:28;23.70;1.00
4637;DHT22;2331;48.806;9.140;2023-07-13T08:35:54;23.80;1.00
4637;DHT22;2331;48.806;9.140;2023-07-13T08:38:21;23.80;1.00
4637;DHT22;2331;48.806;9.140;2023-07-13T08:40:54;23.80;1.00
4637;DHT22;2331;48.806;9.140;2023-07-13T08:43:25;23.90;1.00
4637;DHT22;2331;48.806;9.140;2023-07-13T08:45:57;24.00;1.00
4637;DHT22;2331;48.806;9.140;2023-07-13T08:48:28;24.00;1.00
4637;DHT22;2331;48.806;9.140;2023-07-13T08:51:00;24.10;1.00
4637;DHT22;2331;48.806;9.140;2023-07-13T08:53:34;24.20;1.00
4637;DHT22;2331;48.806;9.140;2023-07-13T08:56:02;24.30;1.00
4637;DHT22;2331;48.806;9.140;2023-07-13T08:58:31;24.30;1.00
4637;DHT22;2331;48.806;9.140;2023-07-13T09:01:13;24.30;1.00
4637;DHT22;2331;48.806;9.140;2023-07-13T09:03:46;24.30;1.00
4637;DHT22;2331;48.806;9.140;2023-07-13T09:06:16;24.40;1.00
4637;DHT22;2331;48.806;9.140;2023-07-13T09:08:51;24.50;1.00
4637;DHT22;2331;48.806;9.140;2023-07-13T09:11:43;24.60;1.00
4637;DHT22;2331;48.806;9.140;2023-07-13T09:14:38;24.60;1.00
4637;DHT22;2331;48.806;9.140;2023-07-13T09:17:12;24.70;1.00
4637;DHT22;2331;48.806;9.140;2023-07-13T09:19:41;24.80;1.00
4637;DHT22;2331;48.806;9.140;2023-07-13T09:22:14;24.80;1.00
4637;DHT22;2331;48.806;9.140;2023-07-13T09:24:55;24.80;1.00
4637;DHT22;2331;48.806;9.140;2023-07-13T09:27:29;24.90;1.00
4637;DHT22;2331;48.806;9.140;2023-07-13T09:30:02;24.90;1.00
4637;DHT22;2331;48.806;9.140;2023-07-13T09:32:33;25.00;1.00
4637;DHT22;2331;48.806;9.140;2023-07-13T09:35:00;25.10;1.00
4637;DHT22;2331;48.806;9.140;2023-07-13T09:37:31;25.20;1.00
4637;DHT22;2331;48.806;9.140;2023-07-13T09:40:01;25.20;1.00
4637;DHT22;2331;48.806;9.140;2023-07-13T09:42:31;25.30;1.00
4637;DHT22;2331;48.806;9.140;2023-07-13T09:45:00;25.20;1.00
4637;DHT22;2331;48.806;9.140;2023-07-13T09:47:30;25.20;1.00
4637;DHT22;2331;48.806;9.140;2023-07-13T09:49:59;25.20;1.00
4637;DHT22;2331;48.806;9.140;2023-07-13T09:52:27;25.30;1.00
4637;DHT22;2331;48.806;9.140;2023-07-13T09:55:23;25.50;1.00
4637;DHT22;2331;48.806;9.140;2023-07-13T09:57:50;25.50;1.00
4637;DHT22;2331;48.806;9.140;2023-07-13T10:00:21;25.50;1.00
4637;DHT22;2331;48.806;9.140;2023-07-13T10:02:58;25.50;1.00
4637;DHT22;2331;48.806;9.140;2023-07-13T10:05:25;25.50;1.00
4637;DHT22;2331;48.806;9.140;2023-07-13T10:07:53;25.60;1.00
4637;DHT22;2331;48.806;9.140;2023-07-13T10:10:23;25.70;1.00
4637;DHT22;2331;48.806;9.140;2023-07-13T10:12:50;25.90;1.00
4637;DHT22;2331;48.806;9.140;2023-07-13T10:15:19;25.90;1.00
4637;DHT22;2331;48.806;9.140;2023-07-13T10:17:47;26.00;1.00
4637;DHT22;2331;48.806;9.140;2023-07-13T10:20:16;26.10;1.00
4637;DHT22;2331;48.806;9.140;2023-07-13T10:22:46;26.20;1.00
4637;DHT22;2331;48.806;9.140;2023-07-13T10:25:19;26.20;1.00
4637;DHT22;2331;48.806;9.140;2023-07-13T10:27:47;26.20;1.00
4637;DHT22;2331;48.806;9.140;2023-07-13T10:30:18;26.20;1.00
4637;DHT22;2331;48.806;9.140;2023-07-13T10:32:47;26.30;1.00
4637;DHT22;2331;48.806;9.140;2023-07-13T10:35:16;26.40;1.00
4637;DHT22;2331;48.806;9.140;2023-07-13T10:37:49;26.50;1.00
4637;DHT22;2331;48.806;9.140;2023-07-13T10:40:19;26.40;1.00
4637;DHT22;2331;48.806;9.140;2023-07-13T10:42:51;26.40;1.00
4637;DHT22;2331;48.806;9.140;2023-07-13T10:45:21;26.40;1.00
4637;DHT22;2331;48.806;9.140;2023-07-13T10:47:49;26.40;1.00
4637;DHT22;2331;48.806;9.140;2023-07-13T10:50:21;26.50;1.00
4637;DHT22;2331;48.806;9.140;2023-07-13T10:52:51;26.40;1.00
4637;DHT22;2331;48.806;9.140;2023-07-13T10:55:37;26.50;1.00
4637;DHT22;2331;48.806;9.140;2023-07-13T10:58:13;26.50;1.00
4637;DHT22;2331;48.806;9.140;2023-07-13T11:00:47;26.50;1.00
4637;DHT22;2331;48.806;9.140;2023-07-13T11:03:18;26.50;1.00
4637;DHT22;2331;48.806;9.140;2023-07-13T11:05:50;26.60;1.00
4637;DHT22;2331;48.806;9.140;2023-07-13T11:08:33;26.50;1.00
4637;DHT22;2331;48.806;9.140;2023-07-13T11:11:02;26.50;1.00
4637;DHT22;2331;48.806;9.140;2023-07-13T11:13:56;26.60;1.00
4637;DHT22;2331;48.806;9.140;2023-07-13T11:16:35;26.60;1.00
4637;DHT22;2331;48.806;9.140;2023-07-13T11:19:28;26.70;1.00
4637;DHT22;2331;48.806;9.140;2023-07-13T11:22:12;26.70;1.00
4637;DHT22;2331;48.806;9.140;2023-07-13T11:24:58;26.60;1.00
4637;DHT22;2331;48.806;9.140;2023-07-13T11:27:38;26.50;1.00
4637;DHT22;2331;48.806;9.140;2023-07-13T11:30:25;26.60;1.00
4637;DHT22;2331;48.806;9.140;2023-07-13T11:33:03;26.70;1.00
4637;DHT22;2331;48.806;9.140;2023-07-13T11:35:35;26.70;1.00
4637;DHT22;2331;48.806;9.140;2023-07-13T11:38:12;26.80;1.00
4637;DHT22;2331;48.806;9.140;2023-07-13T11:40:41;26.80;1.00
4637;DHT22;2331;48.806;9.140;2023-07-13T11:43:13;26.80;1.00
4637;DHT22;2331;48.806;9.140;2023-07-13T11:45:40;26.80;1.00
4637;DHT22;2331;48.806;9.140;2023-07-13T11:48:21;26.90;1.00
4637;DHT22;2331;48.806;9.140;2023-07-13T11:50:54;27.10;1.00
4637;DHT22;2331;48.806;9.140;2023-07-13T11:53:26;27.40;1.00
4637;DHT22;2331;48.806;9.140;2023-07-13T11:55:54;27.50;1.00
4637;DHT22;2331;48.806;9.140;2023-07-13T11:58:23;27.60;1.00
4637;DHT22;2331;48.806;9.140;2023-07-13T12:00:52;27.70;1.00
4637;DHT22;2331;48.806;9.140;2023-07-13T12:03:22;27.90;1.00
4637;DHT22;2331;48.806;9.140;2023-07-13T12:05:58;27.80;1.00
4637;DHT22;2331;48.806;9.140;2023-07-13T12:08:28;27.90;1.00
4637;DHT22;2331;48.806;9.140;2023-07-13T12:11:04;28.10;1.00
4637;DHT22;2331;48.806;9.140;2023-07-13T12:13:36;27.90;1.00
4637;DHT22;2331;48.806;9.140;2023-07-13T12:16:12;27.90;1.00
4637;DHT22;2331;48.806;9.140;2023-07-13T12:18:43;28.00;1.00
4637;DHT22;2331;48.806;9.140;2023-07-13T12:21:13;27.90;1.00
4637;DHT22;2331;48.806;9.140;2023-07-13T12:23:45;27.80;1.00
4637;DHT22;2331;48.806;9.140;2023-07-13T12:26:15;27.60;1.00
4637;DHT22;2331;48.806;9.140;2023-07-13T12:28:46;27.70;1.00
4637;DHT22;2331;48.806;9.140;2023-07-13T12:31:31;27.80;1.00
4637;DHT22;2331;48.806;9.140;2023-07-13T12:33:59;27.80;1.00
4637;DHT22;2331;48.806;9.140;2023-07-13T12:36:30;27.80;1.00
4637;DHT22;2331;48.806;9.140;2023-07-13T12:39:02;27.90;1.00
4637;DHT22;2331;48.806;9.140;2023-07-13T12:41:31;27.90;1.00
4637;DHT22;2331;48.806;9.140;2023-07-13T12:43:59;28.00;1.00
4637;DHT22;2331;48.806;9.140;2023-07-13T12:46:26;27.90;1.00
4637;DHT22;2331;48.806;9.140;2023-07-13T12:48:55;27.80;1.00
4637;DHT22;2331;48.806;9.140;2023-07-13T12:51:25;27.80;1.00
4637;DHT22;2331;48.806;9.140;2023-07-13T12:53:58;27.80;1.00
4637;DHT22;2331;48.806;9.140;2023-07-13T12:56:33;27.80;1.00
4637;DHT22;2331;48.806;9.140;2023-07-13T12:59:03;27.90;1.00
4637;DHT22;2331;48.806;9.140;2023-07-13T13:01:34;27.80;1.00
4637;DHT22;2331;48.806;9.140;2023-07-13T13:04:03;27.90;1.00
4637;DHT22;2331;48.806;9.140;2023-07-13T13:06:32;28.00;1.00
4637;DHT22;2331;48.806;9.140;2023-07-13T13:09:03;28.00;1.00
4637;DHT22;2331;48.806;9.140;2023-07-13T13:11:31;28.10;1.00
4637;DHT22;2331;48.806;9.140;2023-07-13T13:13:58;28.10;1.00
4637;DHT22;2331;48.806;9.140;2023-07-13T13:16:31;28.00;1.00
4637;DHT22;2331;48.806;9.140;2023-07-13T13:19:01;28.00;1.00
4637;DHT22;2331;48.806;9.140;2023-07-13T13:21:28;28.00;1.00
4637;DHT22;2331;48.806;9.140;2023-07-13T13:23:55;28.00;1.00
4637;DHT22;2331;48.806;9.140;2023-07-13T13:26:23;27.90;1.00
4637;DHT22;2331;48.806;9.140;2023-07-13T13:28:50;27.90;1.00
4637;DHT22;2331;48.806;9.140;2023-07-13T13:31:17;28.00;1.00
4637;DHT22;2331;48.806;9.140;2023-07-13T13:33:45;28.00;1.00
4637;DHT22;2331;48.806;9.140;2023-07-13T13:36:15;28.00;1.00
4637;DHT22;2331;48.806;9.140;2023-07-13T13:38:42;27.90;1.00
4637;DHT22;2331;48.806;9.140;2023-07-13T13:41:12;28.00;1.00
4637;DHT22;2331;48.806;9.140;2023-07-13T13:43:41;28.10;1.00
4637;DHT22;2331;48.806;9.140;2023-07-13T13:46:16;28.00;1.00
4637;DHT22;2331;48.806;9.140;2023-07-13T13:48:44;27.90;1.00
4637;DHT22;2331;48.806;9.140;2023-07-13T13:51:16;27.90;1.00
4637;DHT22;2331;48.806;9.140;2023-07-13T13:53:44;28.00;1.00
4637;DHT22;2331;48.806;9.140;2023-07-13T13:56:11;28.10;1.00
4637;DHT22;2331;48.806;9.140;2023-07-13T13:58:40;28.30;1.00
4637;DHT22;2331;48.806;9.140;2023-07-13T14:01:12;28.30;1.00
4637;DHT22;2331;48.806;9.140;2023-07-13T14:03:40;28.60;1.00
4637;DHT22;2331;48.806;9.140;2023-07-13T14:06:08;28.50;1.00
4637;DHT22;2331;48.806;9.140;2023-07-13T14:08:35;28.60;1.00
4637;DHT22;2331;48.806;9.140;2023-07-13T14:11:02;28.60;1.00
4637;DHT22;2331;48.806;9.140;2023-07-13T14:13:32;28.50;1.00
4637;DHT22;2331;48.806;9.140;2023-07-13T14:16:04;28.40;1.00
4637;DHT22;2331;48.806;9.140;2023-07-13T14:18:33;28.50;1.00
4637;DHT22;2331;48.806;9.140;2023-07-13T14:21:00;28.50;1.00
4637;DHT22;2331;48.806;9.140;2023-07-13T14:23:27;28.60;1.00
4637;DHT22;2331;48.806;9.140;2023-07-13T14:25:53;28.60;1.00
4637;DHT22;2331;48.806;9.140;2023-07-13T14:28:23;28.60;1.00
4637;DHT22;2331;48.806;9.140;2023-07-13T14:30:50;28.60;1.00
4637;DHT22;2331;48.806;9.140;2023-07-13T14:33:18;28.50;1.00
4637;DHT22;2331;48.806;9.140;2023-07-13T14:35:45;28.70;1.00
4637;DHT22;2331;48.806;9.140;2023-07-13T14:38:14;28.70;1.00
4637;DHT22;2331;48.806;9.140;2023-07-13T14:40:42;28.60;1.00
4637;DHT22;2331;48.806;9.140;2023-07-13T14:43:12;28.60;1.00
4637;DHT22;2331;48.806;9.140;2023-07-13T14:45:41;28.60;1.00
4637;DHT22;2331;48.806;9.140;2023-07-13T14:48:16;28.70;1.00
4637;DHT22;2331;48.806;9.140;2023-07-13T14:50:45;28.70;1.00
4637;DHT22;2331;48.806;9.140;2023-07-13T14:53:13;28.60;1.00
4637;DHT22;2331;48.806;9.140;2023-07-13T14:55:40;28.50;1.00
4637;DHT22;2331;48.806;9.140;2023-07-13T14:58:08;28.60;1.00
4637;DHT22;2331;48.806;9.140;2023-07-13T15:00:35;28.50;1.00
4637;DHT22;2331;48.806;9.140;2023-07-13T15:03:04;28.60;1.00
4637;DHT22;2331;48.806;9.140;2023-07-13T15:05:32;28.60;1.00
4637;DHT22;2331;48.806;9.140;2023-07-13T15:08:02;28.60;1.00
4637;DHT22;2331;48.806;9.140;2023-07-13T15:10:31;28.60;1.00
4637;DHT22;2331;48.806;9.140;2023-07-13T15:13:00;28.70;1.00
4637;DHT22;2331;48.806;9.140;2023-07-13T15:15:29;28.70;1.00
4637;DHT22;2331;48.806;9.140;2023-07-13T15:17:56;28.70;1.00
4637;DHT22;2331;48.806;9.140;2023-07-13T15:20:26;28.80;1.00
4637;DHT22;2331;48.806;9.140;2023-07-13T15:22:54;28.90;1.00
4637;DHT22;2331;48.806;9.140;2023-07-13T15:25:25;28.80;1.00
4637;DHT22;2331;48.806;9.140;2023-07-13T15:27:53;28.80;1.00
4637;DHT22;2331;48.806;9.140;2023-07-13T15:30:20;28.80;1.00
4637;DHT22;2331;48.806;9.140;2023-07-13T15:32:48;28.70;1.00
4637;DHT22;2331;48.806;9.140;2023-07-13T15:35:16;28.70;1.00
4637;DHT22;2331;48.806;9.140;2023-07-13T15:37:43;28.90;1.00
4637;DHT22;2331;48.806;9.140;2023-07-13T15:40:11;28.70;1.00
4637;DHT22;2331;48.806;9.140;2023-07-13T15:42:41;28.80;1.00
4637;DHT22;2331;48.806;9.140;2023-07-13T15:45:16;29.00;1.00
4637;DHT22;2331;48.806;9.140;2023-07-13T15:47:43;28.80;1.00
4637;DHT22;2331;48.806;9.140;2023-07-13T15:50:13;28.70;1.00
4637;DHT22;2331;48.806;9.140;2023-07-13T15:52:41;28.80;1.00
4637;DHT22;2331;48.806;9.140;2023-07-13T15:55:10;28.90;1.00
4637;DHT22;2331;48.806;9.140;2023-07-13T15:57:37;29.00;1.00
4637;DHT22;2331;48.806;9.140;2023-07-13T16:00:14;29.00;1.00
4637;DHT22;2331;48.806;9.140;2023-07-13T16:02:43;28.90;1.00
4637;DHT22;2331;48.806;9.140;2023-07-13T16:05:09;29.00;1.00
4637;DHT22;2331;48.806;9.140;2023-07-13T16:07:36;29.10;1.00
4637;DHT22;2331;48.806;9.140;2023-07-13T16:10:03;29.10;1.00
4637;DHT22;2331;48.806;9.140;2023-07-13T16:12:30;29.10;1.00
4637;DHT22;2331;48.806;9.140;2023-07-13T16:14:59;29.20;1.00
4637;DHT22;2331;48.806;9.140;2023-07-13T16:17:27;29.10;1.00
4637;DHT22;2331;48.806;9.140;2023-07-13T16:19:54;29.00;1.00
4637;DHT22;2331;48.806;9.140;2023-07-13T16:22:22;29.00;1.00
4637;DHT22;2331;48.806;9.140;2023-07-13T16:24:49;28.90;1.00
4637;DHT22;2331;48.806;9.140;2023-07-13T16:27:20;28.80;1.00
4637;DHT22;2331;48.806;9.140;2023-07-13T16:29:49;29.00;1.00